Time;durP1;ratioP1;P1;durP2;ratioP2;P2;SDS_P1;SDS_P2;PMS_P1;PMS_P2;Temp;Humidity;BMP_temperature;BMP_pressure;BME280_temperature;BME280_humidity;BME280_pressure;Samples;Min_cycle;Max_cycle;Signal;HPM_P1;HPM_P2
2022/03/22 00:00:56;;;;;;;80.57;27.38;;;;;;;;;;5094566;28;20461;-63
2022/03/22 00:03:25;;;;;;;79.47;26.63;;;;;;;;;;5094507;28;20472;-62
2022/03/22 00:05:52;;;;;;;80.65;27.35;;;;;;;;;;5093924;28;20043;-61
2022/03/22 00:08:18;;;;;;;108.32;31.58;;;;;;;;;;5094365;28;20107;-64
2022/03/22 00:10:44;;;;;;;123.35;34.40;;;;;;;;;;5093851;28;20154;-63
2022/03/22 00:13:10;;;;;;;122.90;34.28;;;;;;;;;;5094181;28;20107;-63
2022/03/22 00:15:36;;;;;;;126.03;37.83;;;;;;;;;;5094158;28;20463;-63
2022/03/22 00:18:02;;;;;;;111.75;31.92;;;;;;;;;;5094094;28;20056;-63
2022/03/22 00:20:28;;;;;;;120.03;32.88;;;;;;;;;;5075837;28;20024;-63
2022/03/22 00:22:54;;;;;;;104.43;29.98;;;;;;;;;;5094243;28;20349;-63
2022/03/22 00:25:20;;;;;;;110.88;31.77;;;;;;;;;;5093596;28;20694;-62
2022/03/22 00:27:52;;;;;;;89.60;29.33;;;;;;;;;;5093648;28;20154;-62
2022/03/22 00:30:30;;;;;;;96.15;29.40;;;;;;;;;;5094079;28;20028;-63
2022/03/22 00:32:58;;;;;;;75.53;27.42;;;;;;;;;;5086560;28;20035;-63
2022/03/22 00:35:26;;;;;;;64.38;24.05;;;;;;;;;;5093925;28;20378;-62
2022/03/22 00:37:53;;;;;;;62.25;24.17;;;;;;;;;;5085700;28;20035;-63
2022/03/22 00:40:21;;;;;;;65.82;24.15;;;;;;;;;;5093654;28;20027;-63
2022/03/22 00:42:48;;;;;;;71.32;25.13;;;;;;;;;;5093660;28;20102;-63
2022/03/22 00:45:16;;;;;;;86.97;26.00;;;;;;;;;;5093757;28;20027;-62
2022/03/22 00:47:46;;;;;;;87.75;26.55;;;;;;;;;;5093366;28;20028;-62
2022/03/22 00:50:16;;;;;;;119.43;34.72;;;;;;;;;;5093427;28;20024;-62
2022/03/22 00:52:42;;;;;;;;;;;;;;;;;;5093750;28;20039;-63
2022/03/22 00:55:09;;;;;;;84.18;25.63;;;;;;;;;;5093323;28;19912;-63
2022/03/22 00:57:35;;;;;;;88.82;28.33;;;;;;;;;;5093224;28;20064;-62
2022/03/22 01:00:04;;;;;;;91.68;29.08;;;;;;;;;;5093382;28;20415;-62
2022/03/22 01:02:38;;;;;;;87.85;28.95;;;;;;;;;;5093223;28;20388;-62
2022/03/22 01:05:11;;;;;;;97.10;29.00;;;;;;;;;;5093278;28;20020;-61
2022/03/22 01:07:37;;;;;;;93.18;28.63;;;;;;;;;;5093114;28;20024;-62
2022/03/22 01:10:06;;;;;;;98.35;27.13;;;;;;;;;;5073972;28;20059;-63
2022/03/22 01:12:36;;;;;;;89.05;27.10;;;;;;;;;;5092729;28;20024;-64
2022/03/22 01:15:10;;;;;;;82.13;25.83;;;;;;;;;;5093240;28;20032;-63
2022/03/22 01:17:39;;;;;;;115.70;31.20;;;;;;;;;;5093049;28;20100;-62
2022/03/22 01:20:10;;;;;;;119.97;32.15;;;;;;;;;;5092987;28;20020;-62
2022/03/22 01:22:40;;;;;;;121.55;31.55;;;;;;;;;;5092712;28;20028;-63
2022/03/22 01:25:13;;;;;;;89.53;27.35;;;;;;;;;;5092799;28;20036;-63
2022/03/22 01:27:38;;;;;;;93.07;28.08;;;;;;;;;;5092729;28;20031;-64
2022/03/22 01:30:07;;;;;;;117.70;30.65;;;;;;;;;;5092834;28;20024;-62
2022/03/22 01:32:34;;;;;;;106.43;32.53;;;;;;;;;;5092743;28;20028;-61
2022/03/22 01:35:01;;;;;;;107.25;27.88;;;;;;;;;;5092668;28;20028;-61
2022/03/22 01:37:27;;;;;;;107.63;29.80;;;;;;;;;;5090027;28;20039;-61
2022/03/22 01:39:52;;;;;;;100.25;28.33;;;;;;;;;;5092237;28;20020;-63
2022/03/22 01:42:18;;;;;;;106.22;29.17;;;;;;;;;;5092058;28;20073;-61
2022/03/22 01:44:43;;;;;;;85.05;27.52;;;;;;;;;;5092078;28;20042;-61
2022/03/22 01:47:10;;;;;;;82.90;26.48;;;;;;;;;;5092153;28;20217;-61
2022/03/22 01:49:36;;;;;;;86.35;26.13;;;;;;;;;;5091771;28;20039;-62
2022/03/22 01:52:04;;;;;;;78.82;24.45;;;;;;;;;;5091591;28;20115;-61
2022/03/22 01:54:30;;;;;;;82.07;25.80;;;;;;;;;;5091409;28;20024;-61
2022/03/22 01:56:55;;;;;;;85.38;25.63;;;;;;;;;;5091979;28;20034;-61
2022/03/22 01:59:21;;;;;;;86.60;25.77;;;;;;;;;;5086800;28;20026;-61
2022/03/22 02:07:15;;;;;;;67.80;24.23;;;;;;;;;;5091423;28;20062;-61
2022/03/22 02:09:41;;;;;;;65.00;23.27;;;;;;;;;;5090608;28;20052;-61
2022/03/22 02:12:07;;;;;;;66.85;23.95;;;;;;;;;;5089398;28;20023;-61
2022/03/22 02:14:33;;;;;;;66.22;22.55;;;;;;;;;;5090545;28;20089;-61
2022/03/22 02:16:59;;;;;;;63.47;23.40;;;;;;;;;;5090802;28;20460;-61
2022/03/22 02:19:25;;;;;;;65.50;22.50;;;;;;;;;;5087827;28;20028;-62
2022/03/22 02:22:00;;;;;;;69.60;23.73;;;;;;;;;;5088101;28;20019;-63
2022/03/22 02:24:25;;;;;;;61.75;22.45;;;;;;;;;;5090373;28;20044;-63
2022/03/22 02:26:51;;;;;;;67.50;23.88;;;;;;;;;;5090864;28;20055;-63
2022/03/22 02:29:17;;;;;;;64.20;22.30;;;;;;;;;;5090887;28;20027;-62
2022/03/22 02:31:43;;;;;;;63.22;23.00;;;;;;;;;;5091802;28;20027;-63
2022/03/22 02:34:08;;;;;;;59.92;22.58;;;;;;;;;;5091928;28;20028;-64
2022/03/22 02:36:34;;;;;;;58.42;22.48;;;;;;;;;;5091621;28;20024;-62
2022/03/22 02:39:00;;;;;;;59.15;21.25;;;;;;;;;;5073850;28;20047;-61
2022/03/22 02:41:25;;;;;;;60.90;20.42;;;;;;;;;;5091730;28;20039;-61
2022/03/22 02:43:52;;;;;;;59.92;22.33;;;;;;;;;;5083649;28;20099;-61
2022/03/22 02:46:18;;;;;;;56.13;21.90;;;;;;;;;;5091816;28;20036;-61
2022/03/22 02:48:44;;;;;;;56.72;22.02;;;;;;;;;;5091571;28;20093;-60
2022/03/22 02:51:11;;;;;;;59.00;21.70;;;;;;;;;;5091604;28;20024;-62
2022/03/22 02:53:37;;;;;;;58.22;21.10;;;;;;;;;;5091535;28;20028;-61
2022/03/22 02:56:02;;;;;;;63.10;21.42;;;;;;;;;;5091713;28;20499;-61
2022/03/22 02:58:28;;;;;;;66.30;22.55;;;;;;;;;;5091495;28;20034;-60
2022/03/22 03:00:55;;;;;;;66.10;21.90;;;;;;;;;;5091735;28;20434;-61
2022/03/22 03:03:22;;;;;;;55.45;21.23;;;;;;;;;;5091671;28;20028;-61
2022/03/22 03:05:51;;;;;;;52.17;20.88;;;;;;;;;;5090931;28;20021;-61
2022/03/22 03:08:18;;;;;;;49.55;19.27;;;;;;;;;;5091672;28;20118;-61
2022/03/22 03:10:45;;;;;;;60.28;20.73;;;;;;;;;;5091411;28;20420;-61
2022/03/22 03:13:11;;;;;;;47.92;19.77;;;;;;;;;;5091341;28;20245;-61
2022/03/22 03:15:37;;;;;;;62.80;21.27;;;;;;;;;;5091518;28;20020;-60
2022/03/22 03:18:03;;;;;;;50.00;20.65;;;;;;;;;;5091547;28;20024;-60
2022/03/22 03:20:28;;;;;;;46.90;20.70;;;;;;;;;;5091135;28;20028;-61
2022/03/22 03:22:54;;;;;;;55.40;20.40;;;;;;;;;;5091615;28;20022;-61
2022/03/22 03:25:20;;;;;;;52.53;19.70;;;;;;;;;;5091267;28;20399;-60
2022/03/22 03:27:46;;;;;;;56.80;20.23;;;;;;;;;;5091167;28;20512;-60
2022/03/22 03:30:12;;;;;;;49.80;21.08;;;;;;;;;;5091533;28;20377;-61
2022/03/22 03:32:38;;;;;;;48.03;20.08;;;;;;;;;;5092123;28;20032;-61
2022/03/22 03:35:05;;;;;;;46.72;19.83;;;;;;;;;;5094858;28;20082;-61
2022/03/22 03:37:35;;;;;;;46.05;20.63;;;;;;;;;;5094696;28;20111;-60
2022/03/22 03:40:04;;;;;;;45.42;19.17;;;;;;;;;;5094769;28;20506;-62
2022/03/22 03:42:30;;;;;;;52.55;19.70;;;;;;;;;;5094659;28;20119;-60
2022/03/22 03:47:40;;;;;;;55.20;19.67;;;;;;;;;;5094735;28;20089;-61
2022/03/22 03:50:07;;;;;;;45.40;19.13;;;;;;;;;;5094672;28;20388;-60
2022/03/22 03:52:36;;;;;;;49.25;19.10;;;;;;;;;;5094433;28;20028;-61
2022/03/22 03:55:04;;;;;;;45.75;19.65;;;;;;;;;;5094677;28;20028;-61
2022/03/22 03:57:29;;;;;;;72.38;19.65;;;;;;;;;;5094396;28;20028;-61
2022/03/22 03:59:56;;;;;;;47.45;19.88;;;;;;;;;;5094355;28;20027;-62
2022/03/22 04:02:23;;;;;;;45.15;18.33;;;;;;;;;;5094327;28;20085;-61
2022/03/22 04:04:52;;;;;;;39.75;18.63;;;;;;;;;;5094244;28;20319;-61
2022/03/22 04:07:19;;;;;;;50.40;18.55;;;;;;;;;;5094510;28;20024;-61
2022/03/22 04:09:45;;;;;;;44.42;17.98;;;;;;;;;;5094118;28;20055;-61
2022/03/22 04:12:12;;;;;;;43.47;19.60;;;;;;;;;;5094286;28;20068;-61
2022/03/22 04:14:37;;;;;;;41.50;19.52;;;;;;;;;;5094042;28;20032;-61
2022/03/22 04:17:03;;;;;;;44.15;18.45;;;;;;;;;;5094153;28;20036;-62
2022/03/22 04:19:29;;;;;;;51.00;20.35;;;;;;;;;;5094000;28;20024;-61
2022/03/22 04:21:56;;;;;;;58.03;19.67;;;;;;;;;;5093988;28;20385;-61
2022/03/22 04:24:22;;;;;;;51.92;21.33;;;;;;;;;;5093927;28;20024;-61
2022/03/22 04:26:47;;;;;;;53.10;21.52;;;;;;;;;;5094153;28;20487;-61
2022/03/22 04:34:44;;;;;;;43.45;18.50;;;;;;;;;;5093812;28;20173;-60
2022/03/22 04:37:12;;;;;;;49.58;20.02;;;;;;;;;;5093827;28;20028;-62
2022/03/22 04:39:39;;;;;;;54.17;20.90;;;;;;;;;;5093490;28;20020;-62
2022/03/22 04:42:06;;;;;;;80.22;22.88;;;;;;;;;;5093828;28;20043;-62
2022/03/22 04:44:32;;;;;;;74.70;23.52;;;;;;;;;;5093488;28;20077;-61
2022/03/22 04:46:58;;;;;;;71.38;24.10;;;;;;;;;;5093461;28;20499;-61
2022/03/22 04:49:25;;;;;;;66.75;22.77;;;;;;;;;;5093470;28;20097;-61
2022/03/22 04:57:18;;;;;;;58.17;22.58;;;;;;;;;;5093588;28;20827;-61
2022/03/22 04:59:44;;;;;;;70.78;23.50;;;;;;;;;;5093058;28;20041;-61
2022/03/22 05:02:11;;;;;;;55.83;22.42;;;;;;;;;;5093221;28;20085;-61
2022/03/22 05:04:37;;;;;;;66.35;24.63;;;;;;;;;;5093115;28;20416;-62
2022/03/22 05:07:03;;;;;;;70.65;23.90;;;;;;;;;;5093064;28;20032;-63
2022/03/22 05:09:29;;;;;;;72.85;25.42;;;;;;;;;;5092983;28;20039;-64
2022/03/22 05:11:59;;;;;;;63.33;23.58;;;;;;;;;;5092927;28;20115;-64
2022/03/22 05:14:25;;;;;;;79.50;23.27;;;;;;;;;;5093164;28;20028;-64
2022/03/22 05:16:51;;;;;;;63.13;24.33;;;;;;;;;;5092771;28;20036;-64
2022/03/22 05:19:18;;;;;;;57.95;22.92;;;;;;;;;;5092963;28;20028;-64
2022/03/22 05:21:44;;;;;;;60.63;22.60;;;;;;;;;;5092625;28;20102;-63
2022/03/22 05:24:10;;;;;;;58.42;22.05;;;;;;;;;;5093058;28;20056;-63
2022/03/22 05:26:36;;;;;;;72.63;22.80;;;;;;;;;;5092282;28;20051;-64
2022/03/22 05:29:04;;;;;;;54.42;22.35;;;;;;;;;;5092373;28;20028;-64
2022/03/22 05:31:34;;;;;;;64.88;23.83;;;;;;;;;;5092405;28;20020;-63
2022/03/22 05:34:00;;;;;;;61.72;24.20;;;;;;;;;;5092683;28;20028;-64
2022/03/22 05:36:26;;;;;;;60.75;24.95;;;;;;;;;;5092453;28;20477;-62
2022/03/22 05:38:55;;;;;;;77.45;26.10;;;;;;;;;;5092655;28;20078;-62
2022/03/22 05:41:21;;;;;;;59.15;23.98;;;;;;;;;;5092541;28;20500;-62
2022/03/22 05:43:47;;;;;;;67.13;24.23;;;;;;;;;;5092062;28;20040;-62
2022/03/22 05:46:17;;;;;;;59.05;22.83;;;;;;;;;;5091040;28;20081;-62
2022/03/22 05:48:49;;;;;;;66.87;24.67;;;;;;;;;;5092387;28;20032;-62
2022/03/22 05:51:18;;;;;;;70.78;25.20;;;;;;;;;;5092374;28;20094;-62
2022/03/22 05:53:44;;;;;;;64.25;25.45;;;;;;;;;;5092170;28;20024;-62
2022/03/22 05:56:10;;;;;;;96.07;27.90;;;;;;;;;;5091964;28;20377;-62
2022/03/22 05:58:36;;;;;;;65.82;25.67;;;;;;;;;;5091615;28;20016;-62
2022/03/22 06:01:01;;;;;;;74.25;25.60;;;;;;;;;;5074111;28;20027;-61
2022/03/22 06:03:27;;;;;;;70.57;24.85;;;;;;;;;;5074000;28;20039;-62
2022/03/22 06:05:52;;;;;;;62.80;24.02;;;;;;;;;;5092165;28;20380;-62
2022/03/22 06:08:19;;;;;;;68.82;26.17;;;;;;;;;;5092209;28;20380;-62
2022/03/22 06:10:45;;;;;;;90.78;32.35;;;;;;;;;;5091955;28;20059;-62
2022/03/22 06:13:11;;;;;;;102.43;39.80;;;;;;;;;;5091819;28;20063;-62
2022/03/22 06:15:37;;;;;;;99.28;37.05;;;;;;;;;;5091716;28;20028;-62
2022/03/22 06:18:05;;;;;;;97.57;35.15;;;;;;;;;;5091695;28;20024;-62
2022/03/22 06:20:33;;;;;;;82.07;30.25;;;;;;;;;;5091478;28;20028;-62
2022/03/22 06:23:00;;;;;;;95.57;32.72;;;;;;;;;;5092026;28;20043;-63
2022/03/22 06:25:26;;;;;;;104.35;33.53;;;;;;;;;;5073208;28;20047;-62
2022/03/22 06:27:53;;;;;;;93.95;32.00;;;;;;;;;;5091523;28;20473;-62
2022/03/22 06:30:20;;;;;;;88.18;31.40;;;;;;;;;;5091970;28;20028;-61
2022/03/22 06:32:47;;;;;;;98.38;35.97;;;;;;;;;;5091740;28;20051;-61
2022/03/22 06:35:22;;;;;;;78.85;31.10;;;;;;;;;;5091849;28;20055;-61
2022/03/22 06:37:48;;;;;;;74.00;28.30;;;;;;;;;;5091612;28;20035;-64
2022/03/22 06:40:17;;;;;;;91.22;32.97;;;;;;;;;;5091911;28;20365;-62
2022/03/22 06:42:43;;;;;;;56.67;25.40;;;;;;;;;;5091184;28;20045;-61
2022/03/22 06:45:13;;;;;;;46.80;23.00;;;;;;;;;;5091640;28;20035;-61
2022/03/22 06:47:39;;;;;;;;;;;;;;;;;;5091993;28;20028;-64
2022/03/22 06:50:06;;;;;;;53.45;23.13;;;;;;;;;;5091477;28;19938;-61
2022/03/22 06:52:32;;;;;;;59.15;23.80;;;;;;;;;;5091782;28;20496;-62
2022/03/22 06:54:58;;;;;;;56.78;26.65;;;;;;;;;;5091831;28;20048;-62
2022/03/22 06:57:24;;;;;;;65.20;28.45;;;;;;;;;;5091527;28;20106;-62
2022/03/22 06:59:49;;;;;;;64.13;27.08;;;;;;;;;;5091226;28;20107;-62
2022/03/22 07:02:18;;;;;;;58.15;27.63;;;;;;;;;;5091567;28;20524;-62
2022/03/22 07:04:44;;;;;;;59.53;27.13;;;;;;;;;;5091483;28;20056;-62
2022/03/22 07:07:09;;;;;;;72.80;29.30;;;;;;;;;;5091582;28;20484;-62
2022/03/22 07:09:35;;;;;;;54.85;26.95;;;;;;;;;;5095378;28;20031;-63
2022/03/22 07:12:00;;;;;;;66.25;27.48;;;;;;;;;;5094915;28;20063;-63
2022/03/22 07:14:28;;;;;;;58.28;26.00;;;;;;;;;;5095342;28;20036;-62
2022/03/22 07:16:54;;;;;;;42.50;23.98;;;;;;;;;;5095476;28;20373;-63
2022/03/22 07:19:21;;;;;;;56.97;27.08;;;;;;;;;;5095288;28;20024;-62
2022/03/22 07:21:48;;;;;;;64.38;28.75;;;;;;;;;;5094955;28;20103;-63
2022/03/22 07:24:15;;;;;;;56.78;31.30;;;;;;;;;;5095207;28;20028;-63
2022/03/22 07:26:41;;;;;;;65.40;31.05;;;;;;;;;;5094710;28;20059;-63
2022/03/22 07:29:07;;;;;;;49.53;30.05;;;;;;;;;;5095156;28;20461;-60
2022/03/22 07:31:42;;;;;;;58.50;28.30;;;;;;;;;;5095015;28;20368;-63
2022/03/22 07:34:11;;;;;;;55.83;27.88;;;;;;;;;;5095067;28;20442;-63
2022/03/22 07:36:39;;;;;;;50.65;25.58;;;;;;;;;;5095018;28;20027;-62
2022/03/22 07:39:06;;;;;;;47.85;26.85;;;;;;;;;;5094865;28;20020;-63
2022/03/22 07:41:38;;;;;;;44.70;26.45;;;;;;;;;;5094652;28;20111;-65
2022/03/22 07:44:06;;;;;;;44.75;26.05;;;;;;;;;;5094816;28;20482;-63
2022/03/22 07:46:33;;;;;;;37.70;20.77;;;;;;;;;;5094370;28;20039;-65
2022/03/22 07:52:58;;;;;;;47.85;24.40;;;;;;;;;;5094680;28;20024;-65
2022/03/22 07:54:31;;;;;;;32.63;19.50;;;;;;;;;;5094402;28;20519;-65
2022/03/22 07:56:57;;;;;;;38.30;21.40;;;;;;;;;;5094581;28;20028;-65
2022/03/22 07:59:24;;;;;;;37.05;22.00;;;;;;;;;;5094371;28;20035;-65
2022/03/22 08:01:51;;;;;;;39.75;21.40;;;;;;;;;;5094485;28;20024;-65
2022/03/22 08:04:17;;;;;;;31.75;17.88;;;;;;;;;;5094747;28;20024;-64
2022/03/22 08:06:42;;;;;;;33.70;19.75;;;;;;;;;;5094151;28;20157;-64
2022/03/22 08:09:08;;;;;;;40.92;22.08;;;;;;;;;;5094178;28;20064;-64
2022/03/22 08:11:34;;;;;;;36.83;22.17;;;;;;;;;;5094051;28;20119;-64
2022/03/22 08:14:01;;;;;;;40.83;21.63;;;;;;;;;;5094363;28;20020;-65
2022/03/22 08:16:27;;;;;;;41.92;23.58;;;;;;;;;;5091120;28;20114;-65
2022/03/22 08:18:53;;;;;;;32.35;21.02;;;;;;;;;;5093728;28;20062;-64
2022/03/22 08:21:19;;;;;;;36.67;24.05;;;;;;;;;;5094268;28;20035;-63
2022/03/22 08:23:45;;;;;;;35.42;21.08;;;;;;;;;;5093715;28;20031;-62
2022/03/22 08:26:10;;;;;;;34.17;21.30;;;;;;;;;;5093722;28;20058;-62
2022/03/22 08:28:36;;;;;;;33.90;21.33;;;;;;;;;;5093723;28;20028;-63
2022/03/22 08:31:02;;;;;;;39.28;20.52;;;;;;;;;;5093910;28;20115;-64
2022/03/22 08:33:28;;;;;;;34.40;21.08;;;;;;;;;;5093722;28;20020;-62
2022/03/22 08:35:53;;;;;;;31.10;20.60;;;;;;;;;;5093802;28;20106;-62
2022/03/22 08:38:20;;;;;;;30.30;17.80;;;;;;;;;;5093272;28;20468;-64
2022/03/22 08:40:47;;;;;;;29.40;18.95;;;;;;;;;;5075423;28;20039;-62
2022/03/22 08:43:12;;;;;;;30.92;18.63;;;;;;;;;;5093746;28;20476;-61
2022/03/22 08:45:38;;;;;;;25.40;18.02;;;;;;;;;;5093377;28;20058;-61
2022/03/22 08:48:12;;;;;;;31.25;19.30;;;;;;;;;;5093510;28;20024;-63
2022/03/22 08:50:44;;;;;;;30.27;17.40;;;;;;;;;;5093363;28;20039;-61
2022/03/22 08:53:11;;;;;;;23.77;14.75;;;;;;;;;;5093294;28;20020;-61
2022/03/22 08:55:36;;;;;;;25.73;16.52;;;;;;;;;;5093296;28;20096;-63
2022/03/22 08:58:06;;;;;;;19.35;12.98;;;;;;;;;;5093637;28;20020;-61
2022/03/22 09:00:36;;;;;;;21.58;14.95;;;;;;;;;;5093102;28;20020;-61
2022/03/22 09:03:03;;;;;;;24.33;15.65;;;;;;;;;;5093502;28;20497;-61
2022/03/22 09:08:12;;;;;;;22.92;14.60;;;;;;;;;;5093355;28;20088;-61
2022/03/22 09:10:38;;;;;;;23.13;15.88;;;;;;;;;;5093043;28;20032;-61
2022/03/22 09:13:05;;;;;;;27.58;15.93;;;;;;;;;;5092941;28;20017;-61
2022/03/22 09:15:33;;;;;;;26.85;16.27;;;;;;;;;;5092920;28;20035;-61
2022/03/22 09:17:58;;;;;;;25.70;15.98;;;;;;;;;;5093008;28;20536;-61
2022/03/22 09:20:25;;;;;;;27.38;16.77;;;;;;;;;;5093069;28;20063;-63
2022/03/22 09:22:52;;;;;;;25.90;15.93;;;;;;;;;;5092817;28;20031;-61
2022/03/22 09:25:20;;;;;;;25.70;15.15;;;;;;;;;;5092875;28;20438;-63
2022/03/22 09:27:46;;;;;;;22.63;16.35;;;;;;;;;;5073423;28;20070;-62
2022/03/22 09:30:12;;;;;;;28.55;16.85;;;;;;;;;;5072506;28;20432;-63
2022/03/22 09:32:40;;;;;;;21.50;15.63;;;;;;;;;;5072398;28;20056;-62
2022/03/22 09:35:10;;;;;;;24.63;16.95;;;;;;;;;;5072258;28;20028;-63
2022/03/22 09:37:42;;;;;;;23.50;16.35;;;;;;;;;;5073105;28;20021;-63
2022/03/22 09:40:09;;;;;;;27.15;16.00;;;;;;;;;;5073046;28;20028;-62
2022/03/22 09:42:37;;;;;;;25.92;15.85;;;;;;;;;;5073096;28;20044;-63
2022/03/22 09:45:02;;;;;;;23.75;15.88;;;;;;;;;;5073137;28;20025;-63
2022/03/22 09:47:28;;;;;;;24.02;14.55;;;;;;;;;;5072913;28;20028;-63
2022/03/22 09:49:55;;;;;;;25.38;16.50;;;;;;;;;;5072901;28;20028;-63
2022/03/22 09:52:22;;;;;;;23.55;15.85;;;;;;;;;;5072510;28;20162;-63
2022/03/22 09:54:48;;;;;;;25.90;16.40;;;;;;;;;;5072983;28;20021;-61
2022/03/22 09:57:13;;;;;;;23.85;16.27;;;;;;;;;;5072831;28;20044;-63
2022/03/22 09:59:39;;;;;;;25.02;16.70;;;;;;;;;;5072932;28;20035;-63
2022/03/22 10:02:05;;;;;;;28.70;16.70;;;;;;;;;;5072869;28;20656;-63
2022/03/22 10:04:42;;;;;;;25.35;15.35;;;;;;;;;;5072656;28;20028;-63
2022/03/22 10:07:16;;;;;;;27.13;15.77;;;;;;;;;;5072672;28;20108;-63
2022/03/22 10:09:41;;;;;;;21.35;14.23;;;;;;;;;;5072912;28;20017;-63
2022/03/22 10:12:10;;;;;;;22.58;15.27;;;;;;;;;;5072543;28;20085;-63
2022/03/22 10:14:38;;;;;;;20.40;15.07;;;;;;;;;;5072680;28;20086;-64
2022/03/22 10:17:15;;;;;;;21.02;14.73;;;;;;;;;;5072512;28;20519;-63
2022/03/22 10:19:46;;;;;;;24.27;15.10;;;;;;;;;;5072578;28;20032;-63
2022/03/22 10:22:12;;;;;;;19.65;15.15;;;;;;;;;;5072678;28;20372;-64
2022/03/22 10:24:46;;;;;;;18.67;13.77;;;;;;;;;;5072526;28;20056;-63
2022/03/22 10:27:33;;;;;;;21.33;13.68;;;;;;;;;;5072425;28;20461;-63
2022/03/22 10:30:01;;;;;;;19.13;13.55;;;;;;;;;;5072492;28;20139;-63
2022/03/22 10:32:32;;;;;;;18.10;9.38;;;;;;;;;;5072518;28;20039;-64
2022/03/22 10:35:11;;;;;;;14.52;9.95;;;;;;;;;;5072386;28;20020;-63
2022/03/22 10:37:38;;;;;;;15.15;9.77;;;;;;;;;;5072631;28;20077;-63
2022/03/22 10:40:18;;;;;;;14.93;9.68;;;;;;;;;;5072557;28;20095;-63
2022/03/22 10:42:44;;;;;;;12.02;8.77;;;;;;;;;;5075390;28;20021;-62
2022/03/22 10:45:10;;;;;;;14.75;10.13;;;;;;;;;;5076538;28;20021;-64
2022/03/22 10:47:35;;;;;;;16.05;10.27;;;;;;;;;;5076589;28;20458;-64
2022/03/22 10:50:05;;;;;;;14.98;9.32;;;;;;;;;;5076196;28;20013;-63
2022/03/22 10:52:32;;;;;;;20.45;10.07;;;;;;;;;;5076382;28;20028;-64
2022/03/22 10:54:57;;;;;;;16.00;9.95;;;;;;;;;;5076472;28;20032;-64
2022/03/22 10:57:32;;;;;;;15.95;9.68;;;;;;;;;;5076149;28;20497;-63
2022/03/22 11:00:01;;;;;;;12.52;9.45;;;;;;;;;;5076297;28;20016;-65
2022/03/22 11:02:29;;;;;;;12.40;8.63;;;;;;;;;;5076312;28;20081;-63
2022/03/22 11:04:56;;;;;;;16.60;10.82;;;;;;;;;;5076066;28;20028;-63
2022/03/22 11:07:23;;;;;;;14.90;10.93;;;;;;;;;;5076062;28;20094;-62
2022/03/22 11:09:50;;;;;;;14.75;9.98;;;;;;;;;;5076038;28;20312;-64
2022/03/22 11:12:18;;;;;;;17.35;10.77;;;;;;;;;;5075932;28;20021;-64
2022/03/22 11:14:45;;;;;;;15.85;10.38;;;;;;;;;;5076002;28;20025;-64
2022/03/22 11:17:12;;;;;;;12.25;7.90;;;;;;;;;;5075769;28;20047;-63
2022/03/22 11:19:38;;;;;;;12.65;8.60;;;;;;;;;;5091592;28;20023;-62
2022/03/22 11:22:09;;;;;;;13.65;9.88;;;;;;;;;;5096106;28;20032;-63
2022/03/22 11:24:36;;;;;;;15.50;10.35;;;;;;;;;;5095937;28;20497;-62
2022/03/22 11:27:07;;;;;;;16.27;10.65;;;;;;;;;;5096030;28;20384;-61
2022/03/22 11:29:32;;;;;;;18.48;10.30;;;;;;;;;;5095366;28;20024;-62
2022/03/22 11:34:43;;;;;;;17.00;9.98;;;;;;;;;;5095115;28;20066;-64
2022/03/22 11:37:09;;;;;;;13.70;9.95;;;;;;;;;;5095807;28;20024;-64
2022/03/22 11:42:21;;;;;;;14.75;9.80;;;;;;;;;;5095788;28;20070;-61
2022/03/22 11:44:59;;;;;;;15.52;10.05;;;;;;;;;;5095011;28;20024;-63
2022/03/22 11:47:25;;;;;;;14.85;9.73;;;;;;;;;;5094925;28;20522;-64
2022/03/22 11:49:57;;;;;;;14.35;10.40;;;;;;;;;;5094978;28;20040;-63
2022/03/22 11:52:24;;;;;;;18.30;10.13;;;;;;;;;;5095016;28;20031;-63
2022/03/22 11:55:18;;;;;;;15.85;10.75;;;;;;;;;;5094202;28;20103;-63
2022/03/22 11:57:49;;;;;;;15.48;9.68;;;;;;;;;;5095188;28;20036;-63
2022/03/22 12:00:17;;;;;;;19.00;10.73;;;;;;;;;;5095657;28;20486;-63
2022/03/22 12:02:47;;;;;;;22.02;10.20;;;;;;;;;;5095085;28;20027;-62
2022/03/22 12:05:17;;;;;;;;;;;;;;;;;;5095427;28;20020;-64
2022/03/22 12:07:43;;;;;;;17.48;9.20;;;;;;;;;;5095118;28;20305;-62
2022/03/22 12:10:13;;;;;;;13.32;9.68;;;;;;;;;;5095340;28;20032;-63
2022/03/22 12:12:39;;;;;;;;;;;;;;;;;;5095470;28;20024;-64
2022/03/22 12:15:07;;;;;;;14.95;8.05;;;;;;;;;;5094805;28;19911;-62
2022/03/22 12:17:34;;;;;;;16.35;9.38;;;;;;;;;;5094743;28;20025;-63
2022/03/22 12:20:02;;;;;;;13.98;9.98;;;;;;;;;;5094991;28;20036;-64
2022/03/22 12:22:30;;;;;;;16.25;9.40;;;;;;;;;;5094661;28;20028;-63
2022/03/22 12:25:00;;;;;;;11.30;7.65;;;;;;;;;;5094400;28;20054;-61
2022/03/22 12:27:26;;;;;;;12.82;8.95;;;;;;;;;;5094903;28;20546;-61
2022/03/22 12:29:53;;;;;;;14.38;9.02;;;;;;;;;;5094510;28;20023;-61
2022/03/22 12:32:21;;;;;;;13.80;8.50;;;;;;;;;;5094787;28;20032;-61
2022/03/22 12:34:47;;;;;;;14.98;8.85;;;;;;;;;;5094704;28;20073;-62
2022/03/22 12:37:16;;;;;;;13.82;9.75;;;;;;;;;;5094548;28;20103;-62
2022/03/22 12:39:44;;;;;;;11.55;7.82;;;;;;;;;;5094502;28;20099;-63
2022/03/22 12:42:12;;;;;;;12.38;8.55;;;;;;;;;;5094589;28;20021;-63
2022/03/22 12:44:37;;;;;;;17.40;9.10;;;;;;;;;;5094316;28;20020;-63
2022/03/22 12:47:05;;;;;;;13.60;8.43;;;;;;;;;;5094260;28;20023;-62
2022/03/22 12:49:32;;;;;;;12.45;8.27;;;;;;;;;;5094485;28;20028;-62
2022/03/22 12:51:59;;;;;;;12.95;8.82;;;;;;;;;;5094265;28;20021;-63
2022/03/22 12:54:33;;;;;;;12.98;8.52;;;;;;;;;;5094267;28;20411;-62
2022/03/22 12:57:00;;;;;;;14.43;9.00;;;;;;;;;;5094285;28;20495;-63
2022/03/22 12:59:27;;;;;;;16.15;8.40;;;;;;;;;;5094067;28;20376;-64
2022/03/22 13:01:57;;;;;;;15.05;9.73;;;;;;;;;;5094129;28;20026;-65
2022/03/22 13:04:29;;;;;;;13.57;8.70;;;;;;;;;;5093913;28;20027;-62
2022/03/22 13:07:04;;;;;;;12.07;7.43;;;;;;;;;;5093318;28;20028;-63
2022/03/22 13:12:16;;;;;;;16.50;8.80;;;;;;;;;;5091681;28;20042;-63
2022/03/22 13:15:01;;;;;;;15.38;8.30;;;;;;;;;;5093584;28;20125;-61
2022/03/22 13:17:45;;;;;;;16.73;10.23;;;;;;;;;;5087856;28;20035;-64
2022/03/22 13:20:17;;;;;;;13.77;9.50;;;;;;;;;;5093040;28;20020;-63
2022/03/22 13:23:00;;;;;;;14.52;8.70;;;;;;;;;;5092791;28;20489;-64
2022/03/22 13:25:33;;;;;;;13.05;8.75;;;;;;;;;;5092743;28;20052;-65
2022/03/22 13:28:11;;;;;;;12.55;8.10;;;;;;;;;;5092339;28;20393;-64
2022/03/22 13:30:45;;;;;;;11.23;7.75;;;;;;;;;;5092777;28;20373;-64
2022/03/22 13:33:16;;;;;;;14.40;9.02;;;;;;;;;;5094124;28;20024;-65
2022/03/22 13:36:03;;;;;;;15.40;9.85;;;;;;;;;;5093078;28;20031;-64
2022/03/22 13:38:33;;;;;;;14.98;8.13;;;;;;;;;;5091361;28;20024;-64
2022/03/22 13:41:03;;;;;;;12.90;7.95;;;;;;;;;;5086965;28;20039;-64
2022/03/22 13:43:30;;;;;;;12.48;8.10;;;;;;;;;;5089459;28;20576;-65
2022/03/22 13:45:58;;;;;;;10.77;7.05;;;;;;;;;;5090877;28;20062;-64
2022/03/22 13:48:24;;;;;;;14.27;8.25;;;;;;;;;;5091073;28;20023;-64
2022/03/22 13:50:52;;;;;;;13.63;8.13;;;;;;;;;;5091179;28;20388;-63
2022/03/22 13:53:25;;;;;;;11.35;7.55;;;;;;;;;;5089382;28;20028;-64
2022/03/22 13:55:59;;;;;;;14.75;7.65;;;;;;;;;;5090076;28;20028;-64
2022/03/22 13:58:27;;;;;;;12.05;8.40;;;;;;;;;;5088679;28;20069;-64
2022/03/22 14:00:54;;;;;;;12.07;6.82;;;;;;;;;;5091422;28;20024;-65
2022/03/22 14:03:21;;;;;;;12.70;7.70;;;;;;;;;;5091771;28;20047;-64
2022/03/22 14:05:47;;;;;;;12.80;8.18;;;;;;;;;;5091783;28;20024;-63
2022/03/22 14:08:14;;;;;;;13.05;7.43;;;;;;;;;;5092472;28;20145;-64
2022/03/22 14:10:43;;;;;;;11.57;7.72;;;;;;;;;;5091989;28;20102;-64
2022/03/22 14:13:09;;;;;;;11.75;7.97;;;;;;;;;;5091639;28;20050;-64
2022/03/22 14:15:35;;;;;;;11.15;6.97;;;;;;;;;;5092362;28;20457;-64
2022/03/22 14:18:02;;;;;;;12.18;7.05;;;;;;;;;;5091609;28;20036;-64
2022/03/22 14:20:28;;;;;;;7.35;4.22;;;;;;;;;;5092058;28;20421;-65
2022/03/22 14:22:54;;;;;;;9.45;5.10;;;;;;;;;;5091814;28;20043;-62
2022/03/22 14:25:22;;;;;;;9.27;5.70;;;;;;;;;;5091853;28;20458;-63
2022/03/22 14:27:51;;;;;;;7.75;4.85;;;;;;;;;;5073442;28;20435;-61
2022/03/22 14:30:22;;;;;;;6.40;4.38;;;;;;;;;;5092031;28;20063;-62
2022/03/22 14:32:50;;;;;;;8.02;4.55;;;;;;;;;;5091625;28;20024;-61
2022/03/22 14:38:01;;;;;;;6.55;4.35;;;;;;;;;;5090950;28;20054;-64
2022/03/22 14:40:27;;;;;;;7.93;4.88;;;;;;;;;;5090838;28;20032;-64
2022/03/22 14:42:56;;;;;;;11.05;5.05;;;;;;;;;;5090742;28;20020;-63
2022/03/22 14:45:23;;;;;;;8.00;4.68;;;;;;;;;;5090842;28;20089;-64
2022/03/22 14:47:49;;;;;;;7.68;4.78;;;;;;;;;;5090015;28;20062;-63
2022/03/22 14:50:15;;;;;;;9.05;5.10;;;;;;;;;;5091788;28;20052;-63
2022/03/22 14:55:25;;;;;;;9.55;5.35;;;;;;;;;;5091647;28;20440;-62
2022/03/22 15:00:35;;;;;;;10.55;5.65;;;;;;;;;;5091655;28;20070;-62
2022/03/22 15:03:00;;;;;;;15.30;6.38;;;;;;;;;;5091472;28;20491;-62
2022/03/22 15:05:33;;;;;;;12.43;6.30;;;;;;;;;;5091133;28;20039;-62